Last 365 Observations

McCoy Bottom of Ch3

Daily Data | America/Los_Angeles
as of 12/1/22 9:32 PM PST
Date Daily Max Temp (°F) Time of Max Temp Daily Min Temp (°F) Time of Min Temp Max RH (%) Min RH (%) Dew Pt (°F) Wet Bulb (°F) Max Wet Bulb Temp (°F) Min Wet Bulb Temp (°F) WetB Hrs <28F (hrs) Hrs <= 32F (hrs)
11/30/22 29.1 0129 19.8 2229 81 16 4.1 19.8 22.2 17.9 24.0 24.0
11/29/22 35.8 1047 21.2 0018 32 10 -6.0 22.0 26.6 15.1 24.0 20.0
11/28/22 32.0 1426 17.9 2002 92 13 6.8 18.0 30.4 15.2 9.6 9.6
11/27/22 39.0 1054 29.0 2304 38 6 -9.0 24.5 28.0 20.6 24.0 7.5
11/26/22 37.6 1347 24.3 2006 76 6 4.0 25.2 30.2 17.7 21.1 9.0
11/25/22 45.8 1030 32.2 0112 34 16 5.8 29.8 33.4 24.7 3.6 0.0
11/24/22 39.1 1342 29.0 0350 30 8 -5.5 24.9 29.0 20.9 22.2 6.6
11/23/22 38.6 1329 27.1 0607 60 6 -1.6 25.4 29.6 22.0 22.4 6.7
11/22/22 44.9 1316 25.8 0550 52 7 0.7 25.8 33.2 19.1 17.5 7.9
11/21/22 45.2 1239 25.8 0003 26 4 -13.5 24.0 31.9 19.0 20.2 10.7
11/20/22 42.4 1340 25.2 1937 27 6 -11.9 23.8 30.2 18.9 21.2 10.3
11/19/22 34.4 1301 16.0 0120 33 10 -12.4 17.3 25.4 11.6 24.0 22.3
11/18/22 30.7 0001 13.1 2110 89 19 4.0 17.7 23.2 10.2 24.0 24.0
11/17/22 45.3 1018 22.8 0059 43 9 -1.2 25.4 32.3 17.1 18.0 8.4
11/16/22 37.1 1341 19.1 0133 43 8 -9.3 19.8 27.6 15.0 24.0 20.8
11/15/22 24.1 2330 13.5 0645 96 24 7.2 16.8 20.6 13.0 24.0 24.0
11/14/22 34.0 1043 16.5 2036 69 18 1.0 19.7 26.0 13.6 24.0 19.8
11/13/22 25.6 2153 11.6 0717 94 24 4.2 14.5 19.4 11.3 24.0 24.0
11/12/22 26.7 0004 14.8 2359 94 24 6.4 17.8 22.1 14.4 24.0 24.0
11/11/22 31.0 1941 13.6 0006 100 37 15.6 21.2 29.0 13.3 23.7 24.0
11/10/22 24.7 1437 7.9 0001 99 90 14.5 15.6 24.4 7.7 24.0 24.0
11/9/22 18.4 1326 7.8 2359 96 90 11.4 12.8 18.0 7.6 24.0 24.0
11/8/22 23.0 1120 12.7 2048 97 92 15.5 16.5 22.6 12.4 24.0 24.0
11/7/22 29.6 0051 12.8 2057 100 92 21.9 22.3 29.4 12.5 22.0 24.0
11/6/22 31.7 1125 28.0 2147 100 98 30.6 30.5 31.6 27.8 0.5 24.0
11/5/22 42.1 0121 30.5 0049 99 19 18.5 30.5 34.6 27.8 0.1 3.3
11/4/22 43.3 2313 22.6 0101 100 16 15.8 29.9 31.7 22.1 6.6 12.7
11/3/22 22.6 0101 10.1 0833 95 89 11.0 12.8 22.1 9.8 24.0 24.0
11/2/22 16.4 0645 12.7 2355 92 90 12.7 14.3 15.9 12.3 24.0 24.0
11/1/22 32.8 1404 15.2 2303 94 39 13.1 22.3 26.7 14.4 24.0 24.0
10/31/22 - 1355 - 1431 100 3 9.1 26.4 54.6 - 5.0 13.7
10/30/22 47.4 1521 27.7 0653 66 17 8.6 29.2 34.7 22.9 9.1 0.0
10/29/22 47.4 1503 27.3 0553 78 22 10.3 28.2 35.4 22.5 14.6 0.0
10/28/22 111.3 0956 -37.0 0955 59 3 12.1 28.8 78.0 -40.4 4.9 0.0
10/27/22 - 0909 - 0859 100 3 33.7 41.9 - - 0.8 0.0
10/26/22 59.3 0713 35.7 1502 74 54 34.3 42.3 51.8 30.7 0.0 0.0
10/25/22 55.8 0059 25.6 1345 59 53 26.4 35.2 48.4 21.8 6.3 0.0
10/24/22 - 1010 12.5 1707 100 50 24.4 33.5 - 10.0 11.6 0.0
10/23/22 71.8 0709 38.3 1608 60 55 40.0 47.6 62.7 33.0 0.0 0.0
10/22/22 61.2 2027 -0.4 1509 100 35 41.3 47.0 53.6 -0.3 0.0 0.0
10/21/22 52.3 1248 37.5 0142 61 17 20.3 35.4 39.2 29.4 0.0 0.0
10/20/22 53.7 1533 36.6 0712 47 16 14.3 34.1 39.7 29.0 0.0 0.0
10/19/22 53.4 1440 39.1 0544 40 19 14.7 35.0 38.8 31.2 0.0 0.0
10/18/22 52.8 1505 36.4 0706 44 22 17.0 35.4 39.0 29.9 0.0 0.0
10/17/22 53.9 1421 37.1 0506 41 23 15.6 35.4 40.1 29.3 0.0 0.0
10/16/22 57.0 1503 38.3 0530 55 14 12.7 35.4 42.4 29.5 0.0 0.0
10/15/22 56.0 1520 38.4 0424 37 14 10.9 34.9 39.8 30.2 0.0 0.0
10/14/22 56.9 1534 40.6 0521 38 13 12.6 35.4 40.9 30.7 0.0 0.0
10/13/22 56.2 1437 39.4 0657 39 19 15.9 36.1 40.7 31.6 0.0 0.0
10/12/22 56.3 1433 39.1 0426 43 16 15.8 36.0 41.0 31.7 0.0 0.0
10/11/22 55.3 1502 38.6 0238 52 21 19.2 36.4 40.8 32.2 0.0 0.0
10/10/22 53.3 1315 38.6 0609 59 25 23.7 36.7 40.5 32.8 0.0 0.0
Max 111.3 - 40.6 - 100 98 41.3 47.6 78.0 33.0 24.0 24.0
Avg - - - - - - 11.3 27.4 - - - 10.1
Min 16.4 - -37.0 - 26 3 -13.5 12.8 15.9 -40.4 0.0 0.0
Total - - - - - - - - - - - 525.1